Time;durP1;ratioP1;P1;durP2;ratioP2;P2;SDS_P1;SDS_P2;PMS_P1;PMS_P2;Temp;Humidity;BMP_temperature;BMP_pressure;BME280_temperature;BME280_humidity;BME280_pressure;Samples;Min_cycle;Max_cycle;Signal;HPM_P1;HPM_P2
2021/05/24 04:56:53;;;;;;;10.70;5.90;;;;;;;7.71;82.69;100455.25;5191862;27;20421;-76
2021/05/24 04:59:18;;;;;;;12.52;5.43;;;;;;;7.93;82.25;100456.69;5195267;27;20381;-79
2021/05/24 05:01:43;;;;;;;8.75;4.55;;;;;;;8.18;82.84;100451.69;5195299;27;20416;-75
2021/05/24 05:04:09;;;;;;;7.90;4.07;;;;;;;8.49;82.51;100442.56;5193265;27;20421;-70
2021/05/24 05:06:34;;;;;;;5.05;3.83;;;;;;;8.71;82.00;100443.97;5194034;27;37309;-69
2021/05/24 05:09:00;;;;;;;6.38;3.90;;;;;;;8.91;81.72;100447.28;5194040;27;37535;-70
2021/05/24 05:11:25;;;;;;;8.00;3.50;;;;;;;9.10;82.05;100449.78;5193973;27;20038;-75
2021/05/24 05:13:50;;;;;;;7.18;3.63;;;;;;;9.27;81.52;100452.56;5194155;27;20643;-74
2021/05/24 05:16:16;;;;;;;8.05;3.70;;;;;;;9.41;81.14;100453.81;5194924;27;22067;-75
2021/05/24 05:18:41;;;;;;;4.72;3.13;;;;;;;9.54;81.08;100450.72;5194359;27;36634;-76
2021/05/24 05:21:06;;;;;;;4.38;2.83;;;;;;;9.69;80.60;100448.31;5195408;27;20023;-75
2021/05/24 05:23:32;;;;;;;4.63;3.17;;;;;;;9.83;80.72;100445.91;5192685;27;39496;-69
2021/05/24 05:25:57;;;;;;;7.03;3.30;;;;;;;10.01;80.71;100460.97;5194956;27;20025;-69
2021/05/24 05:28:23;;;;;;;6.63;2.75;;;;;;;10.16;80.22;100459.34;5175126;27;37674;-74
2021/05/24 05:30:50;;;;;;;6.07;2.70;;;;;;;10.26;80.04;100455.72;5193307;27;20053;-75
2021/05/24 05:33:15;;;;;;;4.43;2.25;;;;;;;10.37;79.16;100460.78;5194600;27;20104;-73
2021/05/24 05:35:44;;;;;;;4.78;2.55;;;;;;;10.47;79.12;100460.63;5194629;27;20111;-77
2021/05/24 05:38:09;;;;;;;4.43;2.60;;;;;;;10.58;79.16;100454.16;5194978;27;20058;-75
2021/05/24 05:40:35;;;;;;;5.13;2.60;;;;;;;10.76;79.72;100454.88;5194462;27;20018;-75
2021/05/24 05:43:00;;;;;;;5.63;2.92;;;;;;;10.93;78.90;100454.88;5193745;27;20037;-72
2021/05/24 05:45:26;;;;;;;3.65;2.53;;;;;;;11.09;78.29;100464.72;5135991;27;36063;-76
2021/05/24 05:47:51;;;;;;;5.13;2.47;;;;;;;11.24;78.03;100452.38;5194017;27;20027;-77
2021/05/24 05:50:17;;;;;;;3.97;2.50;;;;;;;11.37;77.01;100467.03;5194448;27;20494;-74
2021/05/24 05:52:42;;;;;;;5.65;2.42;;;;;;;11.49;78.04;100463.81;5193743;27;20125;-71
2021/05/24 05:55:08;;;;;;;4.38;2.80;;;;;;;11.67;77.59;100470.81;5192464;27;28303;-70
2021/05/24 05:57:33;;;;;;;3.67;2.45;;;;;;;11.78;75.99;100467.78;5171957;27;20030;-70
2021/05/24 05:59:58;;;;;;;5.10;2.53;;;;;;;11.89;76.15;100465.75;5180040;27;35210;-72
2021/05/24 06:02:24;;;;;;;4.35;2.05;;;;;;;12.04;76.00;100469.38;5194346;27;22070;-73
2021/05/24 06:04:49;;;;;;;5.32;2.25;;;;;;;12.28;76.75;100476.47;5194314;27;20025;-71
2021/05/24 06:07:15;;;;;;;5.53;2.50;;;;;;;12.49;75.97;100467.84;5184617;27;20031;-70
2021/05/24 06:09:40;;;;;;;3.28;2.17;;;;;;;12.68;75.68;100477.25;5161011;27;20050;-68
2021/05/24 06:12:06;;;;;;;3.67;1.58;;;;;;;12.83;72.87;100474.63;5179714;27;20030;-70
2021/05/24 06:14:32;;;;;;;2.97;2.20;;;;;;;12.85;71.84;100472.63;5178324;27;20031;-70
2021/05/24 06:16:57;;;;;;;5.57;2.33;;;;;;;12.93;73.30;100481.56;5180156;27;20060;-72
2021/05/24 06:19:23;;;;;;;4.30;2.10;;;;;;;13.14;74.50;100481.75;5177901;27;35477;-69
2021/05/24 06:21:48;;;;;;;5.82;2.38;;;;;;;13.47;74.69;100480.66;5176915;27;37528;-71
2021/05/24 06:24:13;;;;;;;4.63;2.40;;;;;;;13.69;73.41;100477.06;5179492;27;23710;-73
2021/05/24 06:26:39;;;;;;;4.13;2.30;;;;;;;13.73;71.98;100490.94;5179074;27;23599;-70
2021/05/24 06:29:04;;;;;;;4.13;2.40;;;;;;;13.87;72.18;100494.63;5178660;27;39967;-72
2021/05/24 06:31:30;;;;;;;4.07;2.30;;;;;;;14.02;72.38;100490.13;5178091;27;20428;-67
2021/05/24 06:33:55;;;;;;;6.85;2.53;;;;;;;14.14;72.38;100490.47;5160947;27;21115;-69
2021/05/24 06:36:20;;;;;;;6.68;3.10;;;;;;;14.29;71.67;100489.63;5178700;27;20463;-70
2021/05/24 06:38:46;;;;;;;7.03;2.80;;;;;;;14.43;72.20;100498.66;5178481;27;20022;-71
2021/05/24 06:41:11;;;;;;;6.70;2.38;;;;;;;14.53;70.45;100502.69;5179603;27;20471;-69
2021/05/24 06:43:38;;;;;;;4.72;2.05;;;;;;;14.38;68.71;100499.22;5178956;27;32706;-69
2021/05/24 06:46:04;;;;;;;2.38;1.67;;;;;;;14.29;68.82;100493.13;5178503;27;20027;-68
2021/05/24 06:48:29;;;;;;;3.03;1.65;;;;;;;14.19;68.78;100496.09;5178540;27;37349;-69
2021/05/24 06:50:55;;;;;;;4.82;1.83;;;;;;;14.20;69.06;100508.47;5178664;27;37938;-69
2021/05/24 06:53:20;;;;;;;3.67;2.17;;;;;;;14.35;69.46;100495.06;5178275;27;20052;-70
2021/05/24 06:55:45;;;;;;;3.88;2.58;;;;;;;14.44;68.71;100498.47;5178186;27;34683;-74
2021/05/24 06:58:11;;;;;;;1.90;1.48;;;;;;;14.48;67.29;100497.06;5177923;27;22729;-70
2021/05/24 07:00:36;;;;;;;3.40;1.83;;;;;;;14.45;67.39;100510.84;5178394;27;34524;-69
2021/05/24 07:03:01;;;;;;;2.70;1.73;;;;;;;14.36;66.10;100506.59;5178690;27;28151;-67
2021/05/24 07:05:27;;;;;;;3.33;1.67;;;;;;;14.24;65.39;100500.06;5179208;27;20059;-65
2021/05/24 07:07:52;;;;;;;5.57;1.50;;;;;;;14.26;65.53;100506.09;5179109;27;20080;-66
2021/05/24 07:10:18;;;;;;;4.28;1.85;;;;;;;14.32;66.02;100497.28;5178271;27;35278;-70
2021/05/24 07:12:43;;;;;;;2.72;1.65;;;;;;;14.35;64.99;100491.53;5177855;27;20019;-70
2021/05/24 07:15:09;;;;;;;4.78;1.85;;;;;;;14.28;64.46;100487.94;5179128;27;20034;-69
2021/05/24 07:17:34;;;;;;;4.43;1.55;;;;;;;14.33;65.19;100485.56;5160264;27;20039;-72
2021/05/24 07:20:01;;;;;;;4.60;1.73;;;;;;;14.57;65.62;100484.41;5177919;27;20033;-70
2021/05/24 07:22:26;;;;;;;3.20;1.55;;;;;;;14.68;65.13;100475.03;5177947;27;20495;-69
2021/05/24 07:24:53;;;;;;;2.67;1.48;;;;;;;14.94;65.74;100476.31;5179066;27;20022;-69
2021/05/24 07:27:18;;;;;;;5.43;1.23;;;;;;;15.05;64.67;100465.91;5177457;27;20022;-69
2021/05/24 07:29:44;;;;;;;3.33;1.20;;;;;;;15.10;63.15;100467.19;5178326;27;20581;-69
2021/05/24 07:32:10;;;;;;;1.30;0.95;;;;;;;15.01;61.95;100466.50;5177702;27;38040;-68
2021/05/24 07:34:37;;;;;;;3.08;0.98;;;;;;;14.98;61.93;100475.75;5178547;27;20482;-69
2021/05/24 07:37:02;;;;;;;1.35;1.00;;;;;;;15.04;61.11;100463.44;5177148;27;20026;-69
2021/05/24 07:39:27;;;;;;;1.58;1.00;;;;;;;15.13;62.03;100464.97;5177387;27;35409;-67
2021/05/24 07:41:53;;;;;;;2.55;1.33;;;;;;;15.33;61.76;100462.41;5175985;27;38860;-66
2021/05/24 07:44:18;;;;;;;3.38;1.38;;;;;;;15.48;61.79;100456.13;5176887;27;20035;-72
2021/05/24 07:46:44;;;;;;;5.50;1.42;;;;;;;15.69;60.84;100461.44;5177468;27;23733;-68
2021/05/24 07:49:10;;;;;;;2.25;1.65;;;;;;;15.85;60.96;100473.72;5178244;27;20058;-70
2021/05/24 07:51:35;;;;;;;3.85;1.67;;;;;;;16.06;60.45;100458.53;5159688;27;20030;-73
2021/05/24 07:54:00;;;;;;;4.97;2.30;;;;;;;16.11;59.13;100463.31;5177221;27;20490;-71
2021/05/24 07:56:26;;;;;;;3.78;1.50;;;;;;;16.01;58.19;100471.75;5177512;27;35907;-70
2021/05/24 07:58:51;;;;;;;3.25;1.40;;;;;;;15.92;57.08;100468.38;5158667;27;37803;-66
2021/05/24 08:01:16;;;;;;;1.45;1.08;;;;;;;15.81;57.34;100459.03;5178271;27;20034;-68
2021/05/24 08:03:42;;;;;;;2.22;1.10;;;;;;;15.78;56.91;100445.97;5177930;27;25067;-69
2021/05/24 08:06:07;;;;;;;4.35;1.15;;;;;;;15.88;57.20;100446.50;5176508;27;25960;-68
2021/05/24 08:08:33;;;;;;;1.85;0.93;;;;;;;16.03;58.01;100440.13;5177663;27;20489;-67
2021/05/24 08:10:58;;;;;;;2.88;1.13;;;;;;;16.23;57.31;100454.47;5178376;27;20026;-67
2021/05/24 08:13:26;;;;;;;4.95;1.05;;;;;;;16.23;56.17;100446.41;5176261;27;20034;-66
2021/05/24 08:15:51;;;;;;;3.30;0.90;;;;;;;16.05;55.08;100438.09;5178004;27;20038;-68
2021/05/24 08:18:16;;;;;;;3.97;1.10;;;;;;;16.03;55.69;100424.00;5176987;27;38370;-68
2021/05/24 08:20:42;;;;;;;3.45;1.13;;;;;;;16.14;56.42;100411.84;5177158;27;36944;-67
2021/05/24 08:23:07;;;;;;;3.45;1.10;;;;;;;16.30;55.97;100397.22;5177937;27;20087;-68
2021/05/24 08:25:33;;;;;;;2.00;1.10;;;;;;;16.45;55.36;100399.75;5176753;27;20489;-66
2021/05/24 08:27:58;;;;;;;2.10;1.20;;;;;;;16.40;54.18;100390.44;5177277;27;33479;-65
2021/05/24 08:30:23;;;;;;;2.83;1.08;;;;;;;16.45;54.35;100389.00;5177942;27;20030;-67
2021/05/24 08:32:49;;;;;;;6.10;1.60;;;;;;;16.57;54.67;100398.13;5177252;27;20031;-65
2021/05/24 08:35:14;;;;;;;4.78;1.40;;;;;;;16.87;55.62;100395.03;5177036;27;31470;-66
2021/05/24 08:37:40;;;;;;;2.42;1.25;;;;;;;17.12;55.06;100395.25;5178034;27;20033;-65
2021/05/24 08:40:06;;;;;;;2.88;1.67;;;;;;;17.24;54.44;100407.03;5177517;27;20026;-65
2021/05/24 08:42:33;;;;;;;7.95;2.05;;;;;;;17.27;53.78;100392.34;5177732;27;20022;-66
2021/05/24 08:44:59;;;;;;;3.70;1.90;;;;;;;17.24;53.04;100398.97;5177334;27;20034;-67
2021/05/24 08:47:27;;;;;;;8.50;2.60;;;;;;;17.31;53.49;100398.16;5158541;27;20027;-66
2021/05/24 08:49:53;;;;;;;4.05;1.70;;;;;;;17.43;53.24;100399.16;5177386;27;20026;-66
2021/05/24 08:52:18;;;;;;;7.57;1.48;;;;;;;17.52;52.74;100403.28;5175831;27;27125;-64
2021/05/24 08:54:43;;;;;;;3.90;1.20;;;;;;;17.54;51.88;100401.19;5174212;27;37783;-62
2021/05/24 08:57:09;;;;;;;2.85;1.15;;;;;;;17.46;51.29;100414.06;5177329;27;20031;-65
2021/05/24 08:59:34;;;;;;;3.78;1.10;;;;;;;17.58;52.49;100399.72;5174911;27;37629;-68
2021/05/24 09:02:00;;;;;;;2.15;1.10;;;;;;;17.57;50.71;100394.56;5177652;27;20027;-76
2021/05/24 09:04:44;;;;;;;4.40;1.00;;;;;;;17.45;50.28;100407.03;5176391;27;20023;-72
2021/05/24 09:07:10;;;;;;;1.98;1.02;;;;;;;17.44;50.18;100408.88;5177191;27;20134;-73
2021/05/24 09:09:36;;;;;;;2.60;1.10;;;;;;;17.47;50.30;100400.41;5176024;27;20075;-70
2021/05/24 09:12:04;;;;;;;1.30;1.00;;;;;;;17.30;49.41;100393.78;5158595;27;20031;-74
2021/05/24 09:14:29;;;;;;;3.72;1.63;;;;;;;17.23;49.35;100389.22;5175902;27;20470;-69
2021/05/24 09:16:59;;;;;;;4.20;1.00;;;;;;;17.20;49.69;100386.97;5157803;27;27455;-69
2021/05/24 09:19:25;;;;;;;4.10;1.00;;;;;;;17.41;50.55;100380.53;5175821;27;20071;-70
2021/05/24 09:21:57;;;;;;;1.75;0.93;;;;;;;17.38;49.34;100382.81;5175219;27;20023;-73
2021/05/24 09:24:33;;;;;;;2.85;1.95;;;;;;;17.36;49.31;100379.47;5176051;27;20535;-72
2021/05/24 09:27:00;;;;;;;3.13;1.00;;;;;;;17.47;49.21;100373.47;5176578;27;20049;-74
2021/05/24 09:29:26;;;;;;;1.23;0.80;;;;;;;17.41;48.59;100367.06;5176399;27;20023;-70
2021/05/24 09:32:19;;;;;;;1.85;0.90;;;;;;;17.49;49.26;100365.97;5175592;27;20065;-79
2021/05/24 09:34:45;;;;;;;2.50;1.00;;;;;;;17.61;48.60;100360.78;5175543;27;20388;-75
2021/05/24 09:37:11;;;;;;;3.50;0.80;;;;;;;17.59;47.85;100357.44;5175318;27;20187;-76
2021/05/24 09:39:36;;;;;;;2.13;0.88;;;;;;;17.61;47.91;100357.28;5178043;27;20483;-73
2021/05/24 09:42:09;;;;;;;2.95;1.20;;;;;;;17.71;48.06;100358.44;5176158;27;20389;-73
2021/05/24 09:44:34;;;;;;;2.13;0.90;;;;;;;17.84;47.19;100356.75;5180068;27;20876;-68
2021/05/24 09:47:01;;;;;;;3.47;1.20;;;;;;;17.89;47.31;100349.69;5178196;27;20034;-68
2021/05/24 09:49:30;;;;;;;2.78;1.38;;;;;;;18.08;47.21;100355.19;5180051;27;20149;-68
2021/05/24 09:51:59;;;;;;;2.75;1.20;;;;;;;18.25;46.85;100356.34;5180059;27;20421;-67
2021/05/24 09:54:32;;;;;;;4.75;1.00;;;;;;;18.40;46.99;100344.44;5179746;27;20125;-66
2021/05/24 09:57:00;;;;;;;1.83;0.68;;;;;;;18.55;46.86;100341.44;5180399;27;20031;-67
2021/05/24 09:59:26;;;;;;;3.45;0.95;;;;;;;18.72;46.72;100341.72;5179411;27;20027;-68
2021/05/24 10:01:55;;;;;;;1.42;0.80;;;;;;;18.84;46.26;100321.03;5179798;27;20035;-67
2021/05/24 10:04:22;;;;;;;1.77;0.90;;;;;;;18.96;45.78;100314.94;5179574;27;20071;-68
2021/05/24 10:06:48;;;;;;;2.92;0.90;;;;;;;18.93;45.21;100311.66;5180054;27;20066;-67
2021/05/24 10:09:15;;;;;;;2.88;0.93;;;;;;;19.04;45.51;100320.03;5178739;27;20027;-67
2021/05/24 10:11:44;;;;;;;8.35;1.00;;;;;;;19.14;45.81;100317.66;5180109;27;20027;-67
2021/05/24 10:14:11;;;;;;;5.32;1.25;;;;;;;19.18;45.22;100318.06;5179603;27;20026;-65
2021/05/24 10:16:47;;;;;;;2.72;1.05;;;;;;;18.97;44.16;100314.72;5178652;27;20852;-66
2021/05/24 10:19:15;;;;;;;0.98;0.65;;;;;;;18.92;44.21;100322.69;5179720;27;20023;-68
2021/05/24 10:21:40;;;;;;;1.83;0.82;;;;;;;18.90;44.17;100322.91;5180455;27;20029;-64
2021/05/24 10:24:06;;;;;;;2.17;1.00;;;;;;;18.79;44.39;100310.09;5178423;27;20355;-63
2021/05/24 10:26:31;;;;;;;4.28;0.90;;;;;;;18.75;44.18;100314.28;5178304;27;20383;-63
2021/05/24 10:28:57;;;;;;;1.05;0.90;;;;;;;18.77;44.39;100317.59;5177991;27;30516;-64
2021/05/24 10:31:28;;;;;;;2.70;0.80;;;;;;;18.75;43.76;100312.41;5179596;27;20372;-65
2021/05/24 10:33:53;;;;;;;;;;;;;;;18.65;44.05;100308.56;5179068;27;20041;-64
2021/05/24 10:36:31;;;;;;;4.72;0.90;;;;;;;18.81;44.75;100310.69;5179773;27;19925;-65
2021/05/24 10:39:14;;;;;;;3.70;0.82;;;;;;;19.04;44.53;100303.84;5179836;27;20023;-65
2021/05/24 10:41:55;;;;;;;0.95;0.65;;;;;;;19.31;44.12;100314.38;5179620;27;20037;-65
2021/05/24 10:44:20;;;;;;;1.38;0.73;;;;;;;19.28;43.28;100311.06;5179773;27;20463;-72
2021/05/24 10:46:46;;;;;;;2.80;0.90;;;;;;;19.37;44.09;100298.09;5178702;27;20059;-73
2021/05/24 10:49:19;;;;;;;2.47;0.95;;;;;;;19.70;44.67;100298.75;5178037;27;20463;-70
2021/05/24 10:51:47;;;;;;;1.65;0.85;;;;;;;19.88;43.48;100290.59;5179492;27;20030;-71
2021/05/24 10:54:13;;;;;;;1.23;0.80;;;;;;;20.03;43.57;100286.69;5177967;27;20037;-67
2021/05/24 10:56:45;;;;;;;3.00;0.98;;;;;;;20.43;43.70;100283.34;5178610;27;20103;-66
2021/05/24 10:59:47;;;;;;;8.57;0.95;;;;;;;20.60;42.92;100278.88;5177926;27;36834;-66
2021/05/24 11:02:26;;;;;;;2.95;0.85;;;;;;;20.54;42.59;100287.94;5178822;27;20026;-67
2021/05/24 11:05:20;;;;;;;4.38;0.95;;;;;;;20.67;41.81;100296.88;5179084;27;20106;-67
2021/05/24 11:07:49;;;;;;;3.58;0.93;;;;;;;20.71;41.36;100279.16;5175214;27;20099;-67
2021/05/24 11:10:14;;;;;;;2.25;0.90;;;;;;;20.78;41.43;100267.16;5178619;27;20034;-68
2021/05/24 11:12:41;;;;;;;1.92;0.90;;;;;;;21.12;41.48;100269.25;5178310;27;20031;-68
2021/05/24 11:15:16;;;;;;;2.00;0.80;;;;;;;21.06;40.44;100281.00;5178383;27;20168;-67
2021/05/24 11:18:03;;;;;;;3.40;0.88;;;;;;;20.66;39.75;100270.91;5178264;27;20035;-67
2021/05/24 11:20:32;;;;;;;4.00;1.10;;;;;;;20.42;39.94;100262.75;5177729;27;20496;-67
2021/05/24 11:23:37;;;;;;;5.32;1.10;;;;;;;20.43;40.33;100272.50;5178716;27;20109;-67
2021/05/24 11:26:21;;;;;;;0.85;0.65;;;;;;;20.44;39.97;100266.06;5178492;27;20487;-66
2021/05/24 11:28:51;;;;;;;2.65;0.90;;;;;;;20.38;40.22;100239.91;5178477;27;20035;-72
2021/05/24 11:31:18;;;;;;;4.18;1.00;;;;;;;20.62;40.54;100265.94;5178240;27;20023;-66
2021/05/24 11:33:49;;;;;;;3.72;1.15;;;;;;;20.69;41.10;100229.84;5178470;27;20030;-66
2021/05/24 11:36:27;;;;;;;3.88;1.00;;;;;;;21.06;40.61;100224.94;5177935;27;20030;-65
2021/05/24 11:39:12;;;;;;;1.15;0.90;;;;;;;21.33;41.33;100251.50;5178442;27;20069;-67
2021/05/24 11:41:56;;;;;;;2.47;1.10;;;;;;;21.33;39.57;100229.03;5178032;27;20119;-67
2021/05/24 11:44:24;;;;;;;2.70;1.05;;;;;;;21.63;40.07;100224.22;5175983;27;20041;-67
2021/05/24 11:46:50;;;;;;;2.30;1.05;;;;;;;21.51;39.13;100244.28;5176576;27;20103;-66
2021/05/24 11:49:17;;;;;;;5.97;1.10;;;;;;;21.04;38.97;100226.28;5176971;27;20031;-67
2021/05/24 11:51:42;;;;;;;5.88;1.55;;;;;;;20.92;40.15;100231.72;5176188;27;20069;-68
2021/05/24 11:54:12;;;;;;;4.53;1.33;;;;;;;21.01;40.91;100213.19;5176490;27;20058;-66
2021/05/24 11:56:48;;;;;;;1.63;0.88;;;;;;;21.02;39.65;100204.84;5177943;27;20058;-67
2021/05/24 11:59:15;;;;;;;5.40;1.20;;;;;;;20.94;40.06;100206.03;5160400;27;20031;-67
2021/05/24 12:01:42;;;;;;;2.83;0.85;;;;;;;20.81;39.48;100200.88;5178045;27;20641;-65
2021/05/24 12:04:18;;;;;;;3.63;1.00;;;;;;;20.60;39.47;100181.47;5177891;27;20775;-66
2021/05/24 12:06:47;;;;;;;6.65;1.35;;;;;;;20.49;39.50;100186.88;5178039;27;20034;-64
2021/05/24 12:09:14;;;;;;;4.07;1.13;;;;;;;20.35;40.08;100164.66;5177977;27;20058;-66
2021/05/24 12:11:55;;;;;;;3.65;1.15;;;;;;;20.28;40.55;100154.78;5178089;27;20429;-68
2021/05/24 12:14:21;;;;;;;4.93;1.13;;;;;;;20.25;40.59;100157.94;5159764;27;20030;-68
2021/05/24 12:16:46;;;;;;;2.30;0.80;;;;;;;20.29;41.11;100156.41;5176757;27;20022;-68
2021/05/24 12:19:12;;;;;;;1.52;0.90;;;;;;;20.37;40.63;100147.13;5158640;27;30994;-68
2021/05/24 12:21:41;;;;;;;4.03;0.93;;;;;;;20.28;40.54;100154.78;5177477;27;20507;-68
2021/05/24 12:24:10;;;;;;;6.07;0.93;;;;;;;20.25;40.63;100140.91;5177964;27;20401;-69
2021/05/24 12:26:37;;;;;;;1.48;0.80;;;;;;;20.35;41.20;100130.28;5177164;27;20033;-68
2021/05/24 12:29:03;;;;;;;4.47;1.30;;;;;;;20.61;41.70;100131.69;5177583;27;20022;-67
2021/05/24 12:31:29;;;;;;;1.85;0.52;;;;;;;20.60;40.04;100131.94;5176154;27;20080;-68
2021/05/24 12:33:55;;;;;;;2.47;0.95;;;;;;;20.35;39.86;100113.25;5176040;27;20100;-70
2021/05/24 12:36:22;;;;;;;3.33;0.70;;;;;;;20.21;40.02;100108.09;5158871;27;20031;-67
2021/05/24 12:38:50;;;;;;;1.77;0.98;;;;;;;20.21;40.22;100104.56;5176326;27;20031;-67
2021/05/24 12:41:17;;;;;;;4.75;0.68;;;;;;;20.02;39.81;100107.38;5177639;27;20030;-69
2021/05/24 12:44:02;;;;;;;4.05;0.85;;;;;;;20.01;40.16;100123.84;5158684;27;20152;-68
2021/05/24 12:46:28;;;;;;;2.85;0.82;;;;;;;19.99;40.10;100102.44;5174299;27;20034;-69
2021/05/24 12:48:54;;;;;;;2.35;0.90;;;;;;;20.01;39.01;100115.72;5156045;27;20575;-66
2021/05/24 12:51:22;;;;;;;0.57;0.55;;;;;;;19.98;39.26;100100.78;5155990;27;20023;-68
2021/05/24 12:53:57;;;;;;;1.30;0.60;;;;;;;20.23;40.18;100114.09;5156214;27;20896;-68
2021/05/24 12:56:23;;;;;;;2.25;0.50;;;;;;;20.26;38.47;100089.28;5155714;27;20043;-67
2021/05/24 12:58:49;;;;;;;3.75;0.73;;;;;;;20.21;38.37;100081.03;5154577;27;20039;-69
2021/05/24 13:01:28;;;;;;;3.22;0.70;;;;;;;20.20;38.65;100084.81;5157316;27;20034;-67
2021/05/24 13:03:55;;;;;;;2.92;0.77;;;;;;;20.27;38.87;100072.00;5176427;27;20060;-68
2021/05/24 13:06:21;;;;;;;0.70;0.52;;;;;;;20.39;38.31;100065.72;5173726;27;20410;-65
2021/05/24 13:08:53;;;;;;;14.30;2.25;;;;;;;20.40;38.02;100062.78;5175152;27;24024;-66
2021/05/24 13:11:20;;;;;;;2.22;0.60;;;;;;;20.25;37.47;100067.88;5175945;27;20027;-67
2021/05/24 13:14:05;;;;;;;4.40;0.73;;;;;;;20.13;37.57;100059.75;5175686;27;20058;-67
2021/05/24 13:16:35;;;;;;;3.90;0.60;;;;;;;20.08;37.18;100048.81;5175837;27;20807;-66
2021/05/24 13:19:13;;;;;;;1.88;0.75;;;;;;;20.09;37.25;100058.59;5178648;27;20041;-67
2021/05/24 13:22:26;;;;;;;2.53;0.52;;;;;;;20.02;37.02;100058.72;5179756;27;20023;-67
2021/05/24 13:25:13;;;;;;;8.52;0.70;;;;;;;19.93;36.94;100043.94;5178566;27;20039;-67
2021/05/24 13:30:27;;;;;;;1.80;0.60;;;;;;;20.14;37.24;100038.97;5177523;27;20047;-67
2021/05/24 13:32:54;;;;;;;5.70;1.02;;;;;;;20.10;36.41;100038.59;5177822;27;20806;-67
2021/05/24 13:35:32;;;;;;;2.22;0.65;;;;;;;20.08;36.43;100048.81;5179361;27;20096;-66
2021/05/24 13:37:59;;;;;;;3.22;0.55;;;;;;;20.09;36.25;100048.63;5178320;27;20869;-67
2021/05/24 13:40:25;;;;;;;4.13;0.60;;;;;;;20.17;37.13;100041.19;5179026;27;20457;-66
2021/05/24 13:42:50;;;;;;;1.63;0.80;;;;;;;20.35;36.72;100029.41;5178174;27;20058;-66
2021/05/24 13:45:16;;;;;;;2.30;0.60;;;;;;;20.57;36.48;100022.28;5177226;27;20034;-66
2021/05/24 13:47:47;;;;;;;1.77;0.70;;;;;;;20.60;36.17;100027.19;5178042;27;20027;-68
2021/05/24 13:50:12;;;;;;;1.42;0.65;;;;;;;20.63;36.01;100028.63;5177881;27;20031;-67
2021/05/24 13:52:38;;;;;;;1.67;0.77;;;;;;;20.69;36.49;100035.78;5177275;27;25735;-68
2021/05/24 13:55:06;;;;;;;4.85;0.80;;;;;;;20.76;35.87;100038.34;5178080;27;20425;-66
2021/05/24 13:57:32;;;;;;;1.15;0.50;;;;;;;20.73;35.20;100022.59;5178776;27;20023;-68
2021/05/24 13:59:57;;;;;;;3.22;0.47;;;;;;;20.79;35.24;100046.81;5179044;27;20035;-67
2021/05/24 14:02:24;;;;;;;2.60;0.70;;;;;;;20.71;35.11;100022.00;5178199;27;34075;-67
2021/05/24 14:04:49;;;;;;;2.50;0.80;;;;;;;20.65;35.03;100006.72;5177583;27;20023;-66
2021/05/24 14:07:15;;;;;;;1.90;0.68;;;;;;;20.60;35.02;100021.78;5178403;27;20023;-66
2021/05/24 14:09:40;;;;;;;1.95;0.75;;;;;;;20.72;35.05;100010.13;5176666;27;35708;-66
2021/05/24 14:12:06;;;;;;;0.50;0.32;;;;;;;20.79;34.12;100000.00;5178162;27;25377;-67
2021/05/24 14:14:31;;;;;;;0.88;0.60;;;;;;;20.79;34.13;100008.91;5177316;27;20128;-66
2021/05/24 14:16:56;;;;;;;5.32;0.68;;;;;;;20.77;34.17;99991.28;5177776;27;32590;-66
2021/05/24 14:19:22;;;;;;;0.68;0.45;;;;;;;20.82;34.45;99996.78;5168981;27;35764;-72
